Time;durP1;ratioP1;P1;durP2;ratioP2;P2;SDS_P1;SDS_P2;PMS_P1;PMS_P2;Temp;Humidity;BMP_temperature;BMP_pressure;BME280_temperature;BME280_humidity;BME280_pressure;Samples;Min_cycle;Max_cycle;Signal;HPM_P1;HPM_P2
2022/12/06 00:01:35;;;;;;;2.75;2.08;;;8.40;76.10;;;;;;5057613;28;20028;-80
2022/12/06 00:04:08;;;;;;;2.47;2.05;;;8.40;76.10;;;;;;5069581;28;20115;-81
2022/12/06 00:06:38;;;;;;;2.38;1.98;;;8.40;76.10;;;;;;5069980;28;20028;-81
2022/12/06 00:09:04;;;;;;;2.38;2.10;;;8.40;76.10;;;;;;5068349;28;20619;-81
2022/12/06 00:11:32;;;;;;;2.33;2.13;;;8.40;76.10;;;;;;5069611;28;20020;-85
2022/12/06 00:14:00;;;;;;;2.20;2.00;;;8.40;76.10;;;;;;5066991;28;20051;-80
2022/12/06 00:16:27;;;;;;;2.40;1.95;;;8.40;76.10;;;;;;5068921;28;20037;-80
2022/12/06 00:18:53;;;;;;;2.28;2.00;;;8.40;76.10;;;;;;5084246;28;20024;-80
2022/12/06 00:21:24;;;;;;;2.28;1.90;;;8.40;76.10;;;;;;5050286;28;20092;-80
2022/12/06 00:23:52;;;;;;;2.58;2.00;;;8.40;76.20;;;;;;5058278;28;20067;-82
2022/12/06 00:26:19;;;;;;;2.20;1.95;;;8.40;76.10;;;;;;5065049;28;20095;-80
2022/12/06 00:28:46;;;;;;;1.95;1.75;;;8.40;76.10;;;;;;5064556;28;20073;-81
2022/12/06 00:31:15;;;;;;;2.67;2.13;;;8.40;76.10;;;;;;5087209;28;20496;-81
2022/12/06 00:33:42;;;;;;;2.28;2.00;;;8.40;76.10;;;;;;5068859;28;20028;-82
2022/12/06 00:36:14;;;;;;;2.53;2.08;;;8.40;76.10;;;;;;5060192;28;20024;-81
2022/12/06 00:38:40;;;;;;;3.03;2.20;;;8.40;76.20;;;;;;5065758;28;20119;-81
2022/12/06 00:41:08;;;;;;;2.45;2.08;;;8.40;76.10;;;;;;5044727;28;20119;-81
2022/12/06 00:43:35;;;;;;;2.60;2.00;;;8.40;76.10;;;;;;5056905;28;20051;-80
2022/12/06 00:46:02;;;;;;;3.08;2.10;;;8.40;76.10;;;;;;5085287;28;20517;-83
2022/12/06 00:48:28;;;;;;;2.42;2.20;;;8.40;76.10;;;;;;5045817;28;20535;-81
2022/12/06 00:50:54;;;;;;;2.33;2.00;;;8.40;76.10;;;;;;5048397;28;20036;-83
2022/12/06 00:53:20;;;;;;;2.40;2.03;;;8.40;76.10;;;;;;5087098;28;20028;-81
2022/12/06 00:55:46;;;;;;;2.65;2.10;;;8.40;76.20;;;;;;5034363;28;20533;-83
2022/12/06 00:58:13;;;;;;;2.55;2.05;;;8.40;76.10;;;;;;5063979;28;20058;-82
2022/12/06 01:00:39;;;;;;;2.38;2.08;;;8.40;76.10;;;;;;5059497;28;20550;-81
2022/12/06 01:03:06;;;;;;;1.92;1.80;;;8.40;76.10;;;;;;5041196;28;20040;-81
2022/12/06 01:05:32;;;;;;;1.83;1.70;;;8.40;76.10;;;;;;5046589;28;20037;-81
2022/12/06 01:07:59;;;;;;;3.03;2.22;;;8.40;76.10;;;;;;5063546;28;20031;-82
2022/12/06 01:10:25;;;;;;;2.35;2.05;;;8.40;76.10;;;;;;5048851;28;20124;-81
2022/12/06 01:12:50;;;;;;;2.33;1.90;;;8.40;76.10;;;;;;5053611;28;20158;-82
2022/12/06 01:15:16;;;;;;;1.95;1.75;;;8.40;76.10;;;;;;5031487;28;20531;-81
2022/12/06 01:17:42;;;;;;;2.33;2.00;;;8.40;76.10;;;;;;5062501;28;20504;-81
2022/12/06 01:20:08;;;;;;;2.35;2.13;;;8.50;76.10;;;;;;5052389;28;20037;-80
2022/12/06 01:22:34;;;;;;;2.00;1.83;;;8.40;76.10;;;;;;5018043;28;20037;-80
2022/12/06 01:25:00;;;;;;;1.80;1.70;;;8.40;76.10;;;;;;5060540;28;20090;-80
2022/12/06 01:27:25;;;;;;;2.00;1.80;;;8.40;76.10;;;;;;5063781;28;20037;-82
2022/12/06 01:29:51;;;;;;;1.90;1.70;;;8.40;76.10;;;;;;5065038;28;20066;-79
2022/12/06 01:32:17;;;;;;;1.95;1.70;;;8.40;76.10;;;;;;5065331;28;20527;-81
2022/12/06 01:34:44;;;;;;;2.10;1.90;;;8.40;76.10;;;;;;5062998;28;20515;-81
2022/12/06 01:37:10;;;;;;;3.25;1.90;;;8.40;76.20;;;;;;5066421;28;20032;-80
2022/12/06 01:39:36;;;;;;;2.00;1.80;;;8.40;76.20;;;;;;5043120;28;20060;-80
2022/12/06 01:42:02;;;;;;;2.17;1.70;;;8.40;76.20;;;;;;5042084;28;20025;-80
2022/12/06 01:44:39;;;;;;;2.65;2.20;;;8.40;76.20;;;;;;5059744;28;20470;-80
2022/12/06 01:47:09;;;;;;;2.75;2.28;;;8.40;76.20;;;;;;5042048;28;20033;-81
2022/12/06 01:49:37;;;;;;;2.70;1.95;;;8.40;76.10;;;;;;5060220;28;20075;-80
2022/12/06 01:52:09;;;;;;;2.95;2.10;;;8.40;76.10;;;;;;5063835;28;20489;-80
2022/12/06 01:54:35;;;;;;;2.20;1.88;;;8.40;76.10;;;;;;5038279;28;20036;-81
2022/12/06 01:57:03;;;;;;;1.92;1.73;;;8.40;76.10;;;;;;5064705;28;20032;-81
2022/12/06 01:59:30;;;;;;;2.45;2.00;;;8.40;76.10;;;;;;5039238;28;20052;-81
2022/12/06 02:01:56;;;;;;;2.00;1.80;;;8.40;76.10;;;;;;5030732;28;20116;-81
2022/12/06 02:04:23;;;;;;;2.15;1.90;;;8.40;76.10;;;;;;5045312;28;20178;-83
2022/12/06 02:06:50;;;;;;;2.50;2.00;;;8.40;76.10;;;;;;5050792;28;20056;-80
2022/12/06 02:09:17;;;;;;;2.03;1.83;;;8.40;76.10;;;;;;5047641;28;20029;-83
2022/12/06 02:11:42;;;;;;;2.13;1.75;;;8.40;76.10;;;;;;5044687;28;20021;-82
2022/12/06 02:14:12;;;;;;;2.28;1.98;;;8.40;76.10;;;;;;5032304;28;20040;-81
2022/12/06 02:17:04;;;;;;;2.85;1.92;;;8.40;76.10;;;;;;5033387;28;20037;-81
2022/12/06 02:19:48;;;;;;;2.15;1.88;;;8.40;76.20;;;;;;5045314;28;20029;-82
2022/12/06 02:22:21;;;;;;;2.15;1.80;;;8.40;76.10;;;;;;5046512;28;20448;-83
2022/12/06 02:25:37;;;;;;;2.15;1.92;;;8.40;76.10;;;;;;5032305;28;20045;-82
2022/12/06 02:28:38;;;;;;;1.70;1.60;;;8.40;76.20;;;;;;5030005;28;20060;-80
2022/12/06 02:31:17;;;;;;;2.17;1.92;;;8.40;76.20;;;;;;5042784;28;21557;-84
2022/12/06 02:33:50;;;;;;;1.77;1.67;;;8.40;76.80;;;;;;5058693;28;20021;-81
2022/12/06 02:36:27;;;;;;;2.13;1.92;;;8.40;76.20;;;;;;5046962;28;20489;-81
2022/12/06 02:38:58;;;;;;;1.90;1.70;;;8.40;76.20;;;;;;5046996;28;20036;-86
2022/12/06 02:41:34;;;;;;;2.10;1.73;;;8.40;76.20;;;;;;5049315;28;20064;-79
2022/12/06 02:44:05;;;;;;;2.47;1.88;;;8.40;76.20;;;;;;5050749;28;20116;-82
2022/12/06 02:46:34;;;;;;;2.28;2.00;;;8.40;76.30;;;;;;5028035;28;20029;-80
2022/12/06 02:49:03;;;;;;;3.00;2.00;;;8.40;76.30;;;;;;5046436;28;20453;-84
2022/12/06 02:51:31;;;;;;;2.33;1.90;;;8.40;76.30;;;;;;5035387;28;20067;-81
2022/12/06 02:54:01;;;;;;;2.17;1.95;;;8.40;76.30;;;;;;5048614;28;20028;-82
2022/12/06 02:56:27;;;;;;;2.03;1.83;;;8.40;76.30;;;;;;5026754;28;20021;-83
2022/12/06 02:58:53;;;;;;;2.50;2.10;;;8.40;76.30;;;;;;5035927;28;20048;-80
2022/12/06 03:01:44;;;;;;;3.00;2.03;;;8.40;76.30;;;;;;5064318;28;20136;-81
2022/12/06 03:04:45;;;;;;;3.58;2.05;;;8.40;76.30;;;;;;5068494;28;20098;-80
2022/12/06 03:07:35;;;;;;;2.13;1.92;;;8.40;76.30;;;;;;5067566;28;20131;-80
2022/12/06 03:10:06;;;;;;;2.53;1.80;;;8.40;76.30;;;;;;5063732;28;20032;-81
2022/12/06 03:12:46;;;;;;;2.00;1.80;;;8.40;76.20;;;;;;5087228;28;20035;-80
2022/12/06 03:15:25;;;;;;;2.30;2.10;;;8.40;76.30;;;;;;5056370;28;20520;-78
2022/12/06 03:17:57;;;;;;;2.10;1.90;;;8.40;76.30;;;;;;5079355;28;20033;-79
2022/12/06 03:20:41;;;;;;;2.33;2.08;;;8.40;76.30;;;;;;5085428;28;20483;-80
2022/12/06 03:23:11;;;;;;;2.05;1.85;;;8.40;76.30;;;;;;5062528;28;20024;-80
2022/12/06 03:25:38;;;;;;;2.25;1.95;;;8.40;76.30;;;;;;5051810;28;20095;-82
2022/12/06 03:28:07;;;;;;;2.47;2.20;;;8.40;76.30;;;;;;5048953;28;20036;-82
2022/12/06 03:30:34;;;;;;;1.83;1.73;;;8.40;76.30;;;;;;5067153;28;20032;-80
2022/12/06 03:33:01;;;;;;;2.50;2.00;;;8.40;76.30;;;;;;5037461;28;20032;-82
2022/12/06 03:35:30;;;;;;;2.72;2.15;;;8.40;76.30;;;;;;5031880;28;20070;-80
2022/12/06 03:38:07;;;;;;;2.88;2.30;;;8.40;76.20;;;;;;5054389;28;20035;-88
2022/12/06 03:40:36;;;;;;;3.13;2.42;;;8.50;76.30;;;;;;5068302;28;20480;-81
2022/12/06 03:43:04;;;;;;;2.70;2.10;;;8.40;76.20;;;;;;5048187;28;20025;-82
2022/12/06 03:45:54;;;;;;;3.45;2.15;;;8.50;76.30;;;;;;5073176;28;20032;-80
2022/12/06 03:48:32;;;;;;;2.42;2.20;;;8.40;76.30;;;;;;5082991;28;20041;-81
2022/12/06 03:51:12;;;;;;;3.20;2.30;;;8.50;76.30;;;;;;5066596;28;20055;-81
2022/12/06 03:54:05;;;;;;;2.70;2.40;;;8.50;76.30;;;;;;5055755;28;20028;-80
2022/12/06 03:56:35;;;;;;;2.55;1.85;;;8.40;76.30;;;;;;5052501;28;20032;-82
2022/12/06 03:59:06;;;;;;;2.83;2.33;;;8.50;76.20;;;;;;5084241;28;20040;-82
2022/12/06 04:01:32;;;;;;;2.80;2.22;;;8.40;76.20;;;;;;5036996;28;20033;-81
2022/12/06 04:03:57;;;;;;;3.80;2.13;;;8.50;76.30;;;;;;5066639;28;20479;-85
2022/12/06 04:06:24;;;;;;;4.32;2.55;;;8.40;76.20;;;;;;5062102;28;20063;-81
2022/12/06 04:08:50;;;;;;;4.70;2.35;;;8.50;76.30;;;;;;5056141;28;20077;-82
2022/12/06 04:11:16;;;;;;;2.58;2.20;;;8.40;76.20;;;;;;5057253;28;20184;-81
2022/12/06 04:13:41;;;;;;;3.47;2.45;;;8.50;76.30;;;;;;5040216;28;20532;-83
2022/12/06 04:18:09;;;;;;;3.08;2.30;;;8.50;76.30;;;;;;5026145;28;20024;-82
2022/12/06 04:18:53;;;;;;;5.47;2.20;;;8.50;76.30;;;;;;5064474;28;20040;-85
2022/12/06 04:23:58;;;;;;;3.60;2.35;;;8.50;76.30;;;;;;5062613;28;20028;-82
2022/12/06 04:26:24;;;;;;;3.05;2.47;;;8.50;76.40;;;;;;5059603;28;20118;-83
2022/12/06 04:39:50;;;;;;;3.42;2.15;;;8.40;76.20;;;;;;5066990;28;20028;-82
2022/12/06 04:45:02;;;;;;;2.47;2.28;;;8.40;76.30;;;;;;5075369;28;20040;-88
2022/12/06 04:47:28;;;;;;;3.03;2.72;;;8.40;76.30;;;;;;5075647;28;20078;-82
2022/12/06 04:49:53;;;;;;;3.08;2.30;;;8.40;76.30;;;;;;5043743;28;20097;-81
2022/12/06 04:52:19;;;;;;;3.35;2.33;;;8.40;76.40;;;;;;5052158;28;20032;-82
2022/12/06 04:54:46;;;;;;;3.92;2.80;;;8.40;76.30;;;;;;5083622;28;20032;-82
2022/12/06 04:57:14;;;;;;;3.72;2.22;;;8.40;76.30;;;;;;5053290;28;20032;-82
2022/12/06 04:59:41;;;;;;;3.00;2.30;;;8.40;76.40;;;;;;5077947;28;20053;-82
2022/12/06 05:02:10;;;;;;;3.00;2.33;;;8.40;76.40;;;;;;5046542;28;20033;-83
2022/12/06 05:04:36;;;;;;;3.58;2.50;;;8.40;76.30;;;;;;5064168;28;20032;-83
2022/12/06 05:07:02;;;;;;;2.95;2.17;;;8.40;76.30;;;;;;5062509;28;20039;-86
2022/12/06 05:09:28;;;;;;;3.30;2.33;;;8.40;76.30;;;;;;5060155;28;20055;-82
2022/12/06 05:11:54;;;;;;;3.08;2.28;;;8.40;76.30;;;;;;5066368;28;20061;-81
2022/12/06 05:14:20;;;;;;;3.42;2.28;;;8.40;76.30;;;;;;5051569;28;20039;-81
2022/12/06 05:16:46;;;;;;;2.50;2.20;;;8.40;76.30;;;;;;5063502;28;20028;-79
2022/12/06 05:19:12;;;;;;;3.38;2.30;;;8.40;76.30;;;;;;5040346;28;20031;-86
2022/12/06 05:21:38;;;;;;;3.15;2.45;;;8.40;76.40;;;;;;5073346;28;20032;-81
2022/12/06 05:24:04;;;;;;;2.75;2.20;;;8.40;76.30;;;;;;5046307;28;20028;-84
2022/12/06 05:26:30;;;;;;;3.63;2.50;;;8.40;76.30;;;;;;5046425;28;20043;-82
2022/12/06 05:28:57;;;;;;;2.72;2.03;;;8.40;76.30;;;;;;5046325;28;20131;-81
2022/12/06 05:31:24;;;;;;;2.83;2.10;;;8.50;76.30;;;;;;5082826;28;20020;-82
2022/12/06 05:33:51;;;;;;;3.20;2.40;;;8.40;76.30;;;;;;5067372;28;20124;-82
2022/12/06 05:36:20;;;;;;;2.92;2.40;;;8.40;76.30;;;;;;5047326;28;20082;-83
2022/12/06 05:38:47;;;;;;;3.72;2.30;;;8.40;76.30;;;;;;5065918;28;20032;-82
2022/12/06 05:41:13;;;;;;;2.20;1.95;;;8.40;76.30;;;;;;5086896;28;20496;-81
2022/12/06 05:43:38;;;;;;;3.60;2.42;;;8.40;76.30;;;;;;5041532;28;20028;-79
2022/12/06 05:46:05;;;;;;;3.55;2.20;;;8.40;76.40;;;;;;5054452;28;20063;-85
2022/12/06 05:48:31;;;;;;;3.72;2.17;;;8.40;76.30;;;;;;5048598;28;20031;-82
2022/12/06 05:50:57;;;;;;;2.83;2.00;;;8.40;76.40;;;;;;5052322;28;20032;-83
2022/12/06 05:53:23;;;;;;;3.13;2.22;;;8.40;76.40;;;;;;5035696;28;20029;-81
2022/12/06 05:55:49;;;;;;;2.45;2.20;;;8.40;76.40;;;;;;5046914;28;20033;-83
2022/12/06 05:58:16;;;;;;;3.13;2.35;;;8.40;76.40;;;;;;5071862;28;20048;-81
2022/12/06 06:00:48;;;;;;;3.50;2.35;;;8.40;76.40;;;;;;5065377;28;20058;-85
2022/12/06 06:03:17;;;;;;;2.17;1.98;;;8.40;76.40;;;;;;5068383;28;20424;-79
2022/12/06 06:05:48;;;;;;;2.45;2.08;;;8.40;76.40;;;;;;5059614;28;20032;-79
2022/12/06 06:08:15;;;;;;;2.58;2.30;;;8.40;76.40;;;;;;5058335;28;20040;-81
2022/12/06 06:10:41;;;;;;;2.63;2.20;;;8.40;76.40;;;;;;5081323;28;20121;-78
2022/12/06 06:13:08;;;;;;;3.00;2.25;;;8.30;76.30;;;;;;5062389;28;20066;-80
2022/12/06 06:15:33;;;;;;;3.05;2.40;;;8.40;76.40;;;;;;5080790;28;20047;-83
2022/12/06 06:17:59;;;;;;;2.92;2.38;;;8.40;76.40;;;;;;5051447;28;20032;-80
2022/12/06 06:20:25;;;;;;;2.97;2.10;;;8.30;76.30;;;;;;5049064;28;20499;-79
2022/12/06 06:22:50;;;;;;;3.05;2.30;;;8.30;76.30;;;;;;5030437;28;20384;-84
2022/12/06 06:25:16;;;;;;;2.95;2.10;;;8.30;76.30;;;;;;5068713;28;20086;-81
2022/12/06 06:27:42;;;;;;;3.25;2.33;;;8.30;76.30;;;;;;5047604;28;20037;-82
2022/12/06 06:30:10;;;;;;;2.72;2.00;;;8.30;76.40;;;;;;5035755;28;20082;-81
2022/12/06 06:32:37;;;;;;;3.13;2.22;;;8.30;76.40;;;;;;5042501;28;20051;-81
2022/12/06 06:35:04;;;;;;;2.83;2.20;;;8.30;76.40;;;;;;5062599;28;20024;-80
2022/12/06 06:37:31;;;;;;;2.40;2.03;;;8.30;76.40;;;;;;5032229;28;20038;-81
2022/12/06 06:39:57;;;;;;;2.72;2.25;;;8.30;76.40;;;;;;5045323;28;20020;-80
2022/12/06 06:42:23;;;;;;;2.78;2.10;;;8.30;76.30;;;;;;5048578;28;20568;-81
2022/12/06 06:44:50;;;;;;;3.17;2.33;;;8.30;76.30;;;;;;5046337;28;20119;-80
2022/12/06 06:47:16;;;;;;;2.85;2.10;;;8.30;76.30;;;;;;5053230;28;20115;-81
2022/12/06 06:49:42;;;;;;;2.17;1.98;;;8.30;76.40;;;;;;5063339;28;20032;-81
2022/12/06 06:52:08;;;;;;;2.75;2.10;;;8.30;76.40;;;;;;5047998;28;20055;-80
2022/12/06 06:54:33;;;;;;;2.58;2.20;;;8.30;76.40;;;;;;5045004;28;20040;-80
2022/12/06 06:57:02;;;;;;;2.53;2.30;;;8.30;76.40;;;;;;5036450;28;20067;-81
2022/12/06 06:59:28;;;;;;;3.25;2.40;;;8.30;76.40;;;;;;5052281;28;20397;-82
2022/12/06 07:01:54;;;;;;;2.63;2.20;;;8.20;76.40;;;;;;5071643;28;20024;-81
2022/12/06 07:04:19;;;;;;;3.13;2.50;;;8.20;76.40;;;;;;5052651;28;20082;-81
2022/12/06 07:06:45;;;;;;;3.70;2.17;;;8.20;76.40;;;;;;5059124;28;20051;-81
2022/12/06 07:09:11;;;;;;;2.45;2.00;;;8.20;76.40;;;;;;5053256;28;20035;-81
2022/12/06 07:11:37;;;;;;;2.97;2.28;;;8.20;76.40;;;;;;5066289;28;20055;-81
2022/12/06 07:14:03;;;;;;;2.80;2.30;;;8.20;76.40;;;;;;5038824;28;20028;-81
2022/12/06 07:16:29;;;;;;;2.58;1.92;;;8.30;76.40;;;;;;5048137;28;20032;-81
2022/12/06 07:18:55;;;;;;;2.90;2.15;;;8.20;76.40;;;;;;5038677;28;20025;-82
2022/12/06 07:21:22;;;;;;;2.17;1.90;;;8.20;76.40;;;;;;5064914;28;20162;-82
2022/12/06 07:23:48;;;;;;;2.53;1.92;;;8.20;76.40;;;;;;5053194;28;20028;-82
2022/12/06 07:26:19;;;;;;;2.53;1.98;;;8.20;76.40;;;;;;5051139;28;20025;-81
2022/12/06 07:28:47;;;;;;;2.75;2.15;;;8.20;76.50;;;;;;5052759;28;20024;-81
2022/12/06 07:31:15;;;;;;;2.42;1.95;;;8.20;76.40;;;;;;5039304;28;20028;-82
2022/12/06 07:33:43;;;;;;;2.47;2.20;;;8.20;76.50;;;;;;5057223;28;20031;-82
2022/12/06 07:36:10;;;;;;;2.47;2.05;;;8.20;76.50;;;;;;5050157;28;20033;-81
2022/12/06 07:38:36;;;;;;;2.53;2.10;;;8.20;76.40;;;;;;5069371;28;20109;-82
2022/12/06 07:46:34;;;;;;;2.17;1.95;;;8.20;76.40;;;;;;5064813;28;20089;-82
2022/12/06 07:49:00;;;;;;;3.78;2.50;;;8.20;76.40;;;;;;5044671;28;20119;-83
2022/12/06 07:51:25;;;;;;;2.20;1.92;;;8.20;76.50;;;;;;5050995;28;20028;-81
2022/12/06 07:53:53;;;;;;;2.45;2.17;;;8.20;76.50;;;;;;5062442;28;20116;-81
2022/12/06 07:56:19;;;;;;;2.40;2.05;;;8.20;76.50;;;;;;5047511;28;20032;-81
2022/12/06 07:58:45;;;;;;;2.67;2.05;;;8.20;76.40;;;;;;5065455;28;20025;-82
2022/12/06 08:01:11;;;;;;;2.63;2.15;;;8.20;76.40;;;;;;5049971;28;20123;-81
2022/12/06 08:03:37;;;;;;;4.28;2.78;;;8.20;76.50;;;;;;5067137;28;20399;-82
2022/12/06 08:06:03;;;;;;;2.67;2.08;;;8.20;76.50;;;;;;5055149;28;20043;-81
2022/12/06 08:08:30;;;;;;;3.83;2.30;;;8.10;76.50;;;;;;5039799;28;20028;-81
2022/12/06 08:11:04;;;;;;;2.80;2.08;;;8.20;76.50;;;;;;5067638;28;20028;-81
2022/12/06 08:13:31;;;;;;;4.20;2.45;;;8.10;76.50;;;;;;5062072;28;20067;-81
2022/12/06 08:15:57;;;;;;;2.55;2.25;;;8.10;76.50;;;;;;5046968;28;20114;-81
2022/12/06 08:18:24;;;;;;;2.13;1.92;;;8.10;76.50;;;;;;5046973;28;20111;-81
2022/12/06 08:20:51;;;;;;;2.15;1.95;;;8.20;76.60;;;;;;5051806;28;20503;-82
2022/12/06 08:23:18;;;;;;;2.55;2.10;;;8.10;76.50;;;;;;5039370;28;20465;-81
2022/12/06 08:25:43;;;;;;;2.20;2.00;;;8.10;76.50;;;;;;5050163;28;20037;-80
2022/12/06 08:28:09;;;;;;;2.83;2.42;;;8.10;76.50;;;;;;5049744;28;20036;-80
2022/12/06 08:30:38;;;;;;;2.70;2.30;;;8.10;76.50;;;;;;5081987;28;20413;-80
2022/12/06 08:33:04;;;;;;;2.58;2.25;;;8.10;76.50;;;;;;5054299;28;20024;-81
2022/12/06 08:35:30;;;;;;;2.55;1.80;;;8.10;76.50;;;;;;5066890;28;20035;-81
2022/12/06 08:37:55;;;;;;;2.22;2.03;;;8.20;76.50;;;;;;5057966;28;20076;-80
2022/12/06 08:40:21;;;;;;;2.45;2.05;;;8.10;76.50;;;;;;5066233;28;20024;-82
2022/12/06 08:42:47;;;;;;;2.33;2.03;;;8.10;76.50;;;;;;5054847;28;20032;-81
2022/12/06 08:45:13;;;;;;;1.63;1.52;;;8.10;76.50;;;;;;5057512;28;20028;-81
2022/12/06 08:47:38;;;;;;;2.20;1.88;;;8.10;76.50;;;;;;5040159;28;20044;-81
2022/12/06 08:50:05;;;;;;;2.38;1.88;;;8.10;76.50;;;;;;5044519;28;20032;-81
2022/12/06 08:52:31;;;;;;;2.33;2.13;;;8.10;76.50;;;;;;5054932;28;20047;-81
2022/12/06 08:54:57;;;;;;;2.53;2.10;;;8.10;77.10;;;;;;5035698;28;20032;-81
2022/12/06 08:57:22;;;;;;;2.72;1.88;;;8.20;76.60;;;;;;5046682;28;20035;-81
2022/12/06 08:59:48;;;;;;;2.65;1.95;;;8.10;76.50;;;;;;5043804;28;20081;-81
2022/12/06 09:02:14;;;;;;;2.15;1.92;;;8.10;76.50;;;;;;5034911;28;20021;-82
2022/12/06 09:04:39;;;;;;;2.13;1.92;;;8.10;76.50;;;;;;5049066;28;20112;-81
2022/12/06 09:07:05;;;;;;;2.60;2.10;;;8.10;76.50;;;;;;5041356;28;20029;-82
2022/12/06 09:09:32;;;;;;;2.00;1.83;;;8.10;76.50;;;;;;5039836;28;20033;-82
2022/12/06 09:11:58;;;;;;;2.78;1.80;;;8.10;76.50;;;;;;5064914;28;20128;-81
2022/12/06 09:14:24;;;;;;;2.30;2.10;;;8.10;76.50;;;;;;5047346;28;20130;-81
2022/12/06 09:16:50;;;;;;;2.58;2.10;;;8.10;76.50;;;;;;5063090;28;20086;-81
2022/12/06 09:19:16;;;;;;;2.03;1.80;;;8.10;76.50;;;;;;5066055;28;20043;-81
2022/12/06 09:21:42;;;;;;;1.73;1.60;;;8.10;76.40;;;;;;5036778;28;20517;-83
2022/12/06 09:24:12;;;;;;;2.33;2.10;;;8.10;76.40;;;;;;5063872;28;20485;-82
2022/12/06 09:26:37;;;;;;;2.13;1.92;;;8.10;76.40;;;;;;5061077;28;20128;-81
2022/12/06 09:29:03;;;;;;;2.70;2.20;;;8.10;76.40;;;;;;5044529;28;20529;-81
2022/12/06 09:31:29;;;;;;;3.22;2.10;;;8.10;76.40;;;;;;5041801;28;20036;-81
2022/12/06 09:33:55;;;;;;;2.35;1.90;;;8.10;76.40;;;;;;5046664;28;20040;-82
2022/12/06 09:36:25;;;;;;;2.22;1.80;;;8.10;76.50;;;;;;5051323;28;20412;-85
2022/12/06 09:39:00;;;;;;;2.15;1.75;;;8.10;76.50;;;;;;5064774;28;20082;-82
2022/12/06 09:42:13;;;;;;;2.15;1.77;;;8.10;76.50;;;;;;5043719;28;20028;-81
2022/12/06 09:44:58;;;;;;;2.00;1.75;;;8.10;76.50;;;;;;5005974;28;20486;-82
2022/12/06 09:47:58;;;;;;;2.25;1.90;;;8.10;76.50;;;;;;5061982;28;20170;-81
2022/12/06 09:50:49;;;;;;;2.55;2.00;;;8.10;76.50;;;;;;5059412;28;20020;-81
2022/12/06 09:53:34;;;;;;;2.63;1.70;;;8.00;76.50;;;;;;5060403;28;20036;-82
2022/12/06 09:56:32;;;;;;;2.77;1.90;;;8.10;76.50;;;;;;5062313;28;20044;-80
2022/12/06 09:59:20;;;;;;;2.10;1.90;;;8.00;76.50;;;;;;5060166;28;20325;-81
2022/12/06 10:02:14;;;;;;;3.53;2.03;;;8.00;76.60;;;;;;5065285;28;20056;-82
2022/12/06 10:05:12;;;;;;;2.22;1.92;;;8.00;76.60;;;;;;5019520;28;20048;-82
2022/12/06 10:07:53;;;;;;;2.30;2.10;;;8.00;76.70;;;;;;5075314;28;20044;-81
2022/12/06 10:10:29;;;;;;;1.95;1.75;;;8.00;76.60;;;;;;5085315;28;20047;-80
2022/12/06 10:13:21;;;;;;;2.13;1.92;;;8.00;76.50;;;;;;5064165;28;20027;-81
2022/12/06 10:16:03;;;;;;;1.90;1.80;;;8.00;76.60;;;;;;5073749;28;20066;-82
2022/12/06 10:18:53;;;;;;;1.70;1.60;;;8.00;76.60;;;;;;5068123;28;20080;-82
2022/12/06 10:21:48;;;;;;;1.85;1.60;;;8.00;76.60;;;;;;5083926;28;20032;-82
2022/12/06 10:24:16;;;;;;;1.90;1.80;;;8.10;76.60;;;;;;5066021;28;20465;-81
2022/12/06 10:26:51;;;;;;;3.05;1.75;;;8.00;76.50;;;;;;5063861;28;20032;-83
2022/12/06 10:29:27;;;;;;;1.60;1.50;;;8.00;76.70;;;;;;5062765;28;20036;-81
2022/12/06 10:31:57;;;;;;;2.45;1.80;;;8.00;76.60;;;;;;5066925;28;20025;-81
2022/12/06 10:34:26;;;;;;;2.05;1.67;;;8.10;76.60;;;;;;5051864;28;20034;-82
2022/12/06 10:37:14;;;;;;;1.95;1.80;;;8.10;76.60;;;;;;5073666;28;20024;-80
2022/12/06 10:40:23;;;;;;;2.50;1.88;;;8.10;76.70;;;;;;5052705;28;20480;-82
2022/12/06 10:43:04;;;;;;;2.13;1.90;;;8.10;76.70;;;;;;5044823;28;20040;-79
2022/12/06 10:48:32;;;;;;;1.60;1.50;;;8.10;76.60;;;;;;5064802;28;20032;-81
2022/12/06 10:51:08;;;;;;;1.70;1.60;;;8.10;76.70;;;;;;5094052;28;20024;-81
2022/12/06 10:53:43;;;;;;;1.63;1.52;;;8.10;76.70;;;;;;5057365;28;20052;-80
2022/12/06 10:56:22;;;;;;;1.90;1.80;;;8.10;76.80;;;;;;5069931;28;20040;-81
2022/12/06 10:58:58;;;;;;;2.45;1.80;;;8.00;76.70;;;;;;5054384;28;20122;-80
2022/12/06 11:01:35;;;;;;;1.60;1.50;;;8.10;76.80;;;;;;5087890;28;20051;-79
2022/12/06 11:04:16;;;;;;;2.08;1.88;;;8.10;76.80;;;;;;5088505;28;20418;-80
2022/12/06 11:06:51;;;;;;;2.22;1.92;;;8.10;76.80;;;;;;5064753;28;20032;-80
2022/12/06 11:09:26;;;;;;;;;;;8.00;76.80;;;;;;5054386;28;20020;-80
2022/12/06 11:11:52;;;;;;;1.77;1.67;;;8.00;76.80;;;;;;5049555;28;21031;-79
2022/12/06 11:14:18;;;;;;;2.38;1.65;;;8.00;76.70;;;;;;5070164;28;20412;-80
2022/12/06 11:16:58;;;;;;;2.10;1.73;;;8.00;76.70;;;;;;5056023;28;20060;-80
2022/12/06 11:19:47;;;;;;;2.05;1.85;;;8.00;76.80;;;;;;5070141;28;20081;-80
2022/12/06 11:22:33;;;;;;;1.80;1.70;;;8.10;77.00;;;;;;5048361;28;20020;-80
2022/12/06 11:25:07;;;;;;;1.70;1.60;;;8.00;76.90;;;;;;5071542;28;20044;-77
2022/12/06 11:27:41;;;;;;;1.98;1.77;;;8.00;76.90;;;;;;5069142;28;20028;-79
2022/12/06 11:30:15;;;;;;;1.70;1.60;;;8.00;76.90;;;;;;5086323;28;20074;-79
2022/12/06 11:32:42;;;;;;;1.67;1.52;;;8.10;77.00;;;;;;5053759;28;20028;-80
2022/12/06 11:35:14;;;;;;;3.47;2.17;;;8.10;76.90;;;;;;5048147;28;20129;-80
2022/12/06 11:37:41;;;;;;;1.73;1.60;;;8.10;77.00;;;;;;5047030;28;20045;-79
2022/12/06 11:40:27;;;;;;;1.65;1.55;;;8.10;77.00;;;;;;5048167;28;20090;-80
2022/12/06 11:42:55;;;;;;;2.08;1.73;;;8.10;77.10;;;;;;5052826;28;20469;-81
2022/12/06 11:45:28;;;;;;;1.98;1.75;;;8.10;77.00;;;;;;5056936;28;20024;-80
2022/12/06 11:47:56;;;;;;;2.20;1.95;;;8.10;77.10;;;;;;5051928;28;20028;-79
2022/12/06 11:50:23;;;;;;;2.92;2.08;;;8.10;77.00;;;;;;5054040;28;20036;-80
2022/12/06 11:52:56;;;;;;;2.10;1.90;;;8.10;77.10;;;;;;5059604;28;20028;-80
2022/12/06 11:55:26;;;;;;;1.73;1.60;;;8.10;77.10;;;;;;5082836;28;20028;-80
2022/12/06 11:58:14;;;;;;;1.70;1.60;;;8.10;77.00;;;;;;5055636;28;20464;-79
2022/12/06 12:00:59;;;;;;;2.13;1.70;;;8.10;77.10;;;;;;5072874;28;20557;-79
2022/12/06 12:03:30;;;;;;;2.03;1.83;;;8.20;77.10;;;;;;5087707;28;20110;-82
2022/12/06 12:06:26;;;;;;;3.58;1.80;;;8.10;77.00;;;;;;5064794;28;20021;-80
2022/12/06 12:09:00;;;;;;;2.45;1.83;;;8.20;77.00;;;;;;5062057;28;20044;-80
2022/12/06 12:11:41;;;;;;;2.17;1.98;;;8.20;77.00;;;;;;5055138;28;20103;-80
2022/12/06 12:14:17;;;;;;;1.75;1.63;;;8.20;77.10;;;;;;5055915;28;20085;-80
2022/12/06 12:16:47;;;;;;;2.55;1.98;;;8.20;77.00;;;;;;5056706;28;20532;-80
2022/12/06 12:19:34;;;;;;;1.88;1.70;;;8.30;77.10;;;;;;5069011;28;20032;-80
2022/12/06 12:22:24;;;;;;;2.25;1.80;;;8.30;77.10;;;;;;5068829;28;20380;-80
2022/12/06 12:24:53;;;;;;;2.05;1.80;;;8.30;77.10;;;;;;5060098;28;20146;-81
2022/12/06 12:27:32;;;;;;;1.88;1.73;;;8.30;77.00;;;;;;5058674;28;20036;-80
2022/12/06 12:30:27;;;;;;;2.40;1.70;;;8.40;77.10;;;;;;5057078;28;20066;-79
2022/12/06 12:33:17;;;;;;;2.45;1.70;;;8.40;77.10;;;;;;5083919;28;20543;-79
2022/12/06 12:35:48;;;;;;;1.92;1.67;;;8.40;77.10;;;;;;5041418;28;20404;-79
2022/12/06 12:38:26;;;;;;;1.85;1.70;;;8.40;77.10;;;;;;5073307;28;20024;-80
2022/12/06 12:41:02;;;;;;;1.88;1.60;;;8.50;77.20;;;;;;5059375;28;20017;-81
2022/12/06 12:43:33;;;;;;;1.90;1.70;;;8.40;77.10;;;;;;5065739;28;20079;-79
2022/12/06 12:46:16;;;;;;;2.33;1.65;;;8.40;77.10;;;;;;5066356;28;20032;-78
2022/12/06 12:48:44;;;;;;;1.70;1.60;;;8.50;77.10;;;;;;5084415;28;20020;-79
2022/12/06 12:51:28;;;;;;;1.60;1.50;;;8.50;77.10;;;;;;5051680;28;20048;-80
2022/12/06 12:54:16;;;;;;;2.20;1.83;;;8.50;77.10;;;;;;5056959;28;20074;-79
2022/12/06 12:56:42;;;;;;;1.88;1.50;;;8.60;77.10;;;;;;5070143;28;20024;-78
2022/12/06 12:59:15;;;;;;;1.95;1.50;;;8.60;77.00;;;;;;5049829;28;20119;-79
2022/12/06 13:01:49;;;;;;;1.90;1.67;;;8.60;77.10;;;;;;5053821;28;20116;-79
2022/12/06 13:04:27;;;;;;;2.38;1.95;;;8.60;77.00;;;;;;5065221;28;20032;-79
2022/12/06 13:07:28;;;;;;;1.98;1.67;;;8.60;77.10;;;;;;5068992;28;20028;-79
2022/12/06 13:10:05;;;;;;;1.98;1.77;;;8.70;77.10;;;;;;5017773;28;20055;-81
2022/12/06 13:12:40;;;;;;;2.53;1.80;;;8.70;77.10;;;;;;5065695;28;20457;-80
2022/12/06 13:15:17;;;;;;;2.10;1.70;;;8.70;77.10;;;;;;5065358;28;20473;-80
2022/12/06 13:17:49;;;;;;;1.67;1.58;;;8.70;77.10;;;;;;5063139;28;20104;-79
2022/12/06 13:20:30;;;;;;;1.60;1.50;;;8.80;77.10;;;;;;5067040;28;20032;-80
2022/12/06 13:23:00;;;;;;;3.00;1.73;;;8.80;77.20;;;;;;5045232;28;20044;-80
2022/12/06 13:25:26;;;;;;;1.88;1.70;;;8.80;77.10;;;;;;5049180;28;20024;-80
2022/12/06 13:27:55;;;;;;;1.70;1.60;;;8.80;77.10;;;;;;5055000;28;20037;-81
2022/12/06 13:30:25;;;;;;;2.60;2.03;;;8.80;77.10;;;;;;5048886;28;20119;-81
2022/12/06 13:33:02;;;;;;;1.70;1.60;;;8.80;77.00;;;;;;5048534;28;20046;-80
2022/12/06 13:35:36;;;;;;;1.60;1.50;;;8.90;77.10;;;;;;5057132;28;20031;-81
2022/12/06 13:38:22;;;;;;;1.77;1.58;;;8.90;77.00;;;;;;5051937;28;20111;-80
2022/12/06 13:40:52;;;;;;;2.00;1.73;;;8.90;77.10;;;;;;5054562;28;20115;-81
2022/12/06 13:43:24;;;;;;;1.70;1.60;;;8.90;77.00;;;;;;5068231;28;20058;-80
2022/12/06 13:45:51;;;;;;;1.60;1.50;;;8.90;77.00;;;;;;5084005;28;20028;-80